createdAt,value
2022-12-14T00:02:38.246Z,38.05
2022-12-14T00:05:24.734Z,35.28
2022-12-14T00:08:23.221Z,34.90
2022-12-14T00:11:10.530Z,37.63
2022-12-14T00:13:59.884Z,39.70
2022-12-14T00:16:45.714Z,37.33
2022-12-14T00:19:31.478Z,43.25
2022-12-14T00:22:20.477Z,36.90
2022-12-14T00:25:07.107Z,38.53
2022-12-14T00:27:54.622Z,39.40
2022-12-14T00:30:40.729Z,36.83
2022-12-14T00:33:26.640Z,42.17
2022-12-14T00:36:13.410Z,41.33
2022-12-14T00:38:59.541Z,36.55
2022-12-14T00:41:45.620Z,52.88
2022-12-14T00:44:31.542Z,48.85
2022-12-14T00:47:17.430Z,49.10
2022-12-14T00:50:03.757Z,47.85
2022-12-14T00:52:49.854Z,49.83
2022-12-14T00:55:40.699Z,49.95
2022-12-14T00:58:27.803Z,43.65
2022-12-14T01:01:17.354Z,39.83
2022-12-14T01:04:19.489Z,41.85
2022-12-14T01:07:06.715Z,46.38
2022-12-14T01:09:52.998Z,38.50
2022-12-14T01:12:39.794Z,36.28
2022-12-14T01:15:25.983Z,38.42
2022-12-14T01:18:12.020Z,40.95
2022-12-14T01:21:27.124Z,42.17
2022-12-14T01:26:59.376Z,34.75
2022-12-14T01:29:45.290Z,39.05
2022-12-14T01:32:31.448Z,38.30
2022-12-14T01:35:17.377Z,34.83
2022-12-14T01:38:03.886Z,34.13
2022-12-14T01:40:49.931Z,33.50
2022-12-14T01:43:47.184Z,36.00
2022-12-14T01:46:38.612Z,37.45
2022-12-14T01:50:04.974Z,32.45
2022-12-14T01:52:57.408Z,34.08
2022-12-14T01:55:54.480Z,33.13
2022-12-14T01:58:40.458Z,34.50
2022-12-14T02:01:26.295Z,31.50
2022-12-14T02:04:14.830Z,35.72
2022-12-14T02:07:02.253Z,35.78
2022-12-14T02:09:49.051Z,34.10
2022-12-14T02:12:41.350Z,41.08
2022-12-14T02:15:27.851Z,35.30
2022-12-14T02:18:22.064Z,35.20
2022-12-14T02:21:39.632Z,34.55
2022-12-14T02:24:53.305Z,36.90
2022-12-14T02:27:58.610Z,33.13
2022-12-14T02:31:00.913Z,35.88
2022-12-14T02:33:57.118Z,36.17
2022-12-14T02:36:57.912Z,52.40
2022-12-14T02:40:00.977Z,35.83
2022-12-14T02:43:30.723Z,35.88
2022-12-14T02:46:32.106Z,37.85
2022-12-14T02:49:49.690Z,35.33
2022-12-14T02:53:00.905Z,41.63
2022-12-14T02:55:56.486Z,35.67
2022-12-14T02:58:50.346Z,37.38
2022-12-14T03:01:39.061Z,34.60
2022-12-14T03:04:25.413Z,32.05
2022-12-14T03:07:36.664Z,33.38
2022-12-14T03:10:32.046Z,37.40
2022-12-14T03:13:27.449Z,33.80
2022-12-14T03:16:17.164Z,33.63
2022-12-14T03:19:11.350Z,27.27
2022-12-14T03:22:06.041Z,36.25
2022-12-14T03:27:48.737Z,35.53
2022-12-14T03:30:59.339Z,36.73
2022-12-14T03:33:48.542Z,33.55
2022-12-14T03:36:56.782Z,34.10
2022-12-14T03:39:44.649Z,36.75
2022-12-14T03:42:38.870Z,32.30
2022-12-14T03:45:35.742Z,36.65
2022-12-14T03:48:24.925Z,32.60
2022-12-14T03:51:25.923Z,38.72
2022-12-14T03:54:16.817Z,35.10
2022-12-14T03:57:09.340Z,37.95
2022-12-14T04:00:06.893Z,31.63
2022-12-14T04:03:08.340Z,31.27
2022-12-14T04:06:09.461Z,35.75
2022-12-14T04:09:09.095Z,33.30
2022-12-14T04:12:29.515Z,38.40
2022-12-14T04:15:50.666Z,35.80
2022-12-14T04:19:00.032Z,30.60
2022-12-14T04:21:55.445Z,31.90
2022-12-14T04:25:38.227Z,33.63
2022-12-14T04:28:47.704Z,35.70
2022-12-14T04:31:37.761Z,38.53
2022-12-14T04:34:27.937Z,35.28
2022-12-14T04:37:18.495Z,33.60
2022-12-14T04:40:12.499Z,29.58
2022-12-14T04:43:13.671Z,34.30
2022-12-14T04:46:06.412Z,32.42
2022-12-14T04:49:23.841Z,30.70
2022-12-14T04:52:33.895Z,35.78
2022-12-14T04:55:41.967Z,32.40
2022-12-14T04:58:29.977Z,29.80
2022-12-14T05:01:42.878Z,31.88
2022-12-14T05:05:00.102Z,29.50
2022-12-14T05:08:07.621Z,31.17
2022-12-14T05:11:51.519Z,29.27
2022-12-14T05:14:45.824Z,26.50
2022-12-14T05:17:38.037Z,28.15
2022-12-14T05:20:24.491Z,33.22
2022-12-14T05:23:10.450Z,26.75
2022-12-14T05:25:56.306Z,24.98
2022-12-14T05:28:45.930Z,32.55
2022-12-14T05:31:36.195Z,22.35
2022-12-14T05:34:22.530Z,27.70
2022-12-14T05:37:11.630Z,29.10
2022-12-14T05:40:00.792Z,26.63
2022-12-14T05:42:52.348Z,26.70
2022-12-14T05:45:41.292Z,27.02
2022-12-14T05:48:27.601Z,28.50
2022-12-14T05:51:14.372Z,28.30
2022-12-14T05:54:00.523Z,24.85
2022-12-14T05:56:46.405Z,28.30
2022-12-14T05:59:32.763Z,28.13
2022-12-14T06:02:18.775Z,28.77
2022-12-14T06:05:05.661Z,26.27
2022-12-14T06:07:51.481Z,30.10
2022-12-14T06:10:37.568Z,27.50
2022-12-14T06:13:24.013Z,27.63
2022-12-14T06:16:22.738Z,26.95
2022-12-14T06:19:12.936Z,29.90
2022-12-14T06:21:59.443Z,27.63
2022-12-14T06:24:45.470Z,28.05
2022-12-14T06:27:31.823Z,28.70
2022-12-14T06:30:17.837Z,30.35
2022-12-14T06:33:04.064Z,29.85
2022-12-14T06:35:50.180Z,30.92
2022-12-14T06:38:36.119Z,35.17
2022-12-14T06:41:23.958Z,29.92
2022-12-14T06:44:13.035Z,31.48
2022-12-14T06:46:59.539Z,31.70
2022-12-14T06:49:45.696Z,30.38
2022-12-14T06:52:35.085Z,29.88
2022-12-14T06:55:21.390Z,29.00
2022-12-14T06:58:11.661Z,30.50
2022-12-14T07:01:02.149Z,29.30
2022-12-14T07:03:50.880Z,31.98
2022-12-14T07:06:40.426Z,34.47
2022-12-14T07:09:26.682Z,34.28
2022-12-14T07:12:13.335Z,33.13
2022-12-14T07:14:59.321Z,33.22
2022-12-14T07:17:45.195Z,40.85
2022-12-14T07:20:31.413Z,41.40
2022-12-14T07:23:17.373Z,52.15
2022-12-14T07:26:09.143Z,42.00
2022-12-14T07:28:55.406Z,41.03
2022-12-14T07:31:41.468Z,38.15
2022-12-14T07:34:30.355Z,35.50
2022-12-14T07:37:16.437Z,44.58
2022-12-14T07:40:04.497Z,37.53
2022-12-14T07:42:50.976Z,39.70
2022-12-14T07:45:38.171Z,48.47
2022-12-14T07:48:24.013Z,51.75
2022-12-14T07:51:12.198Z,42.40
2022-12-14T07:54:00.005Z,38.85
2022-12-14T07:56:46.340Z,41.40
2022-12-14T07:59:32.453Z,47.83
2022-12-14T08:02:18.352Z,42.03
2022-12-14T08:05:10.587Z,43.80
2022-12-14T08:07:58.669Z,40.30
2022-12-14T08:10:48.715Z,40.70
2022-12-14T08:13:35.382Z,42.10
2022-12-14T08:16:22.314Z,42.60
2022-12-14T08:19:10.301Z,40.03
2022-12-14T08:21:56.465Z,43.13
2022-12-14T08:24:42.334Z,43.88
2022-12-14T08:27:35.444Z,49.03
2022-12-14T08:30:21.517Z,47.70
2022-12-14T08:33:07.675Z,39.25
2022-12-14T08:35:56.045Z,48.30
2022-12-14T08:38:42.363Z,43.90
2022-12-14T08:41:29.040Z,43.88
2022-12-14T08:44:17.182Z,46.92
2022-12-14T08:47:03.572Z,47.60
2022-12-14T08:49:49.676Z,45.17
2022-12-14T08:52:35.679Z,45.15
2022-12-14T08:55:28.247Z,43.10
2022-12-14T08:58:16.095Z,41.65
2022-12-14T09:01:07.516Z,48.22
2022-12-14T09:03:53.604Z,49.42
2022-12-14T09:06:39.954Z,39.78
2022-12-14T09:09:26.178Z,45.15
2022-12-14T09:12:12.051Z,42.92
2022-12-14T09:14:58.190Z,51.42
2022-12-14T09:17:44.246Z,44.85
2022-12-14T09:20:30.142Z,46.08
2022-12-14T09:23:15.944Z,42.42
2022-12-14T09:26:10.350Z,42.88
2022-12-14T09:28:58.061Z,38.67
2022-12-14T09:31:45.605Z,38.00
2022-12-14T09:34:31.951Z,43.33
2022-12-14T09:37:17.954Z,36.50
2022-12-14T09:40:05.221Z,44.13
2022-12-14T09:42:59.494Z,37.83
2022-12-14T09:45:50.615Z,37.40
2022-12-14T09:48:37.145Z,34.70
2022-12-14T09:51:29.902Z,35.80
2022-12-14T09:54:22.169Z,38.20
2022-12-14T09:57:14.018Z,34.25
2022-12-14T10:00:00.708Z,28.40
2022-12-14T10:03:07.629Z,34.97
2022-12-14T10:05:56.562Z,32.35
2022-12-14T10:08:54.525Z,33.85
2022-12-14T10:12:02.136Z,31.95
2022-12-14T10:15:03.398Z,31.70
2022-12-14T10:18:05.320Z,30.60
2022-12-14T10:20:58.049Z,30.20
2022-12-14T10:24:04.036Z,38.00
2022-12-14T10:26:55.712Z,35.35
2022-12-14T10:29:52.111Z,31.60
2022-12-14T10:32:40.033Z,30.38
2022-12-14T10:35:52.340Z,32.00
2022-12-14T10:39:00.077Z,27.98
2022-12-14T10:42:11.448Z,32.65
2022-12-14T10:45:38.955Z,32.90
2022-12-14T10:48:37.302Z,36.25
2022-12-14T10:51:38.029Z,47.67
2022-12-14T10:54:49.609Z,27.65
2022-12-14T10:57:35.865Z,30.45
2022-12-14T11:00:23.398Z,34.90
2022-12-14T11:03:15.597Z,33.65
2022-12-14T11:06:14.374Z,35.38
2022-12-14T11:09:00.618Z,33.05
2022-12-14T11:11:47.070Z,31.50
2022-12-14T11:14:33.762Z,29.17
2022-12-14T11:17:41.438Z,28.33
2022-12-14T11:20:28.174Z,31.27
2022-12-14T11:23:33.852Z,26.42
2022-12-14T11:26:27.947Z,23.85
2022-12-14T11:29:27.531Z,27.40
2022-12-14T11:32:24.178Z,30.30
2022-12-14T11:35:17.501Z,32.17
2022-12-14T11:38:04.345Z,27.35
2022-12-14T11:40:50.920Z,26.45
2022-12-14T11:43:40.311Z,27.92
2022-12-14T11:46:58.111Z,29.35
2022-12-14T11:49:54.489Z,28.88
2022-12-14T11:52:43.690Z,30.17
2022-12-14T11:55:29.940Z,30.48
2022-12-14T11:58:21.859Z,34.28
2022-12-14T12:01:24.191Z,28.63
2022-12-14T12:04:15.493Z,23.55
2022-12-14T12:07:13.484Z,24.67
2022-12-14T12:10:14.509Z,26.27
2022-12-14T12:13:03.811Z,23.85
2022-12-14T12:15:56.960Z,24.92
2022-12-14T12:18:47.008Z,27.20
2022-12-14T12:21:40.054Z,27.02
2022-12-14T12:24:38.796Z,25.90
2022-12-14T12:27:33.342Z,28.02
2022-12-14T12:30:28.388Z,25.83
2022-12-14T12:33:41.797Z,24.30
2022-12-14T12:36:30.381Z,23.98
2022-12-14T12:39:21.614Z,22.65
2022-12-14T12:42:45.755Z,21.05
2022-12-14T12:45:36.729Z,23.88
2022-12-14T12:48:46.736Z,27.33
2022-12-14T12:52:00.993Z,24.45
2022-12-14T12:54:58.239Z,21.42
2022-12-14T12:57:51.011Z,26.52
2022-12-14T13:00:40.190Z,24.63
2022-12-14T13:03:45.304Z,24.33
2022-12-14T13:06:33.206Z,24.33
2022-12-14T13:09:33.823Z,26.67
2022-12-14T13:12:30.433Z,23.80
2022-12-14T13:15:20.709Z,23.88
2022-12-14T13:18:49.202Z,29.73
2022-12-14T13:21:35.111Z,24.98
2022-12-14T13:24:22.639Z,25.67
2022-12-14T13:27:30.735Z,24.23
2022-12-14T13:30:19.446Z,27.05
2022-12-14T13:33:51.024Z,23.42
2022-12-14T13:37:08.046Z,21.23
2022-12-14T13:40:13.599Z,25.40
2022-12-14T13:43:30.299Z,27.55
2022-12-14T13:46:26.462Z,28.20
2022-12-14T13:49:21.833Z,23.17
2022-12-14T13:52:19.932Z,35.50
2022-12-14T13:55:45.138Z,20.35
2022-12-14T13:58:48.581Z,26.30
2022-12-14T14:01:46.669Z,24.88
2022-12-14T14:04:35.713Z,25.17
2022-12-14T14:07:24.446Z,26.42
2022-12-14T14:10:28.523Z,24.83
2022-12-14T14:13:30.058Z,25.40
2022-12-14T14:16:41.834Z,32.97
2022-12-14T14:19:35.397Z,26.25
2022-12-14T14:22:27.601Z,28.67
2022-12-14T14:25:40.745Z,29.73
2022-12-14T14:28:30.468Z,28.42
2022-12-14T14:31:17.155Z,30.23
2022-12-14T14:34:05.145Z,27.73
2022-12-14T14:36:51.843Z,31.65
2022-12-14T14:39:56.565Z,33.47
2022-12-14T14:42:56.552Z,34.33
2022-12-14T14:45:49.885Z,33.80
2022-12-14T14:48:43.958Z,34.70
2022-12-14T14:51:34.461Z,37.83
2022-12-14T14:57:54.507Z,36.05
2022-12-14T15:01:20.052Z,30.27
2022-12-14T15:04:27.845Z,33.72
2022-12-14T15:07:19.062Z,34.25
2022-12-14T15:10:35.665Z,30.48
2022-12-14T15:13:30.780Z,31.40
2022-12-14T15:16:22.810Z,30.85
2022-12-14T15:19:26.447Z,29.25
2022-12-14T15:22:20.680Z,29.33
2022-12-14T15:28:00.448Z,31.02
2022-12-14T15:30:47.626Z,27.70
2022-12-14T15:33:36.875Z,28.27
2022-12-14T15:36:28.768Z,26.23
2022-12-14T15:39:44.133Z,25.85
2022-12-14T15:42:30.625Z,31.05
2022-12-14T15:45:23.532Z,31.23
2022-12-14T15:48:14.488Z,35.88
2022-12-14T15:51:07.603Z,32.55
2022-12-14T15:53:54.647Z,31.25
2022-12-14T15:56:47.062Z,28.00
2022-12-14T15:59:35.981Z,36.72
2022-12-14T16:02:28.138Z,38.33
2022-12-14T16:05:18.826Z,35.42
2022-12-14T16:08:08.464Z,35.58
2022-12-14T16:10:57.121Z,37.83
2022-12-14T16:13:48.951Z,45.78
2022-12-14T16:16:35.314Z,38.00
2022-12-14T16:19:28.858Z,31.63
2022-12-14T16:25:05.995Z,37.35
2022-12-14T16:27:53.585Z,56.40
2022-12-14T16:31:00.627Z,32.65
2022-12-14T16:34:02.245Z,33.13
2022-12-14T16:37:22.623Z,34.55
2022-12-14T16:39:55.493Z,33.22
2022-12-14T16:42:44.487Z,40.55
2022-12-14T16:45:43.165Z,43.45
2022-12-14T16:48:31.615Z,41.75
2022-12-14T16:51:44.335Z,40.13
2022-12-14T16:54:33.080Z,40.28
2022-12-14T16:57:24.314Z,37.85
2022-12-14T17:00:27.365Z,42.88
2022-12-14T17:03:25.706Z,34.33
2022-12-14T17:06:25.502Z,34.50
2022-12-14T17:09:20.265Z,38.53
2022-12-14T17:12:13.631Z,39.17
2022-12-14T17:15:00.008Z,33.10
2022-12-14T17:17:49.351Z,41.50
2022-12-14T17:20:37.007Z,39.88
2022-12-14T17:23:23.325Z,39.53
2022-12-14T17:26:25.103Z,37.40
2022-12-14T17:29:23.157Z,32.47
2022-12-14T17:32:13.198Z,37.55
2022-12-14T17:34:59.936Z,35.05
2022-12-14T17:37:46.842Z,44.40
2022-12-14T17:40:35.431Z,40.05
2022-12-14T17:43:26.099Z,34.55
2022-12-14T17:46:14.116Z,29.48
2022-12-14T17:49:05.994Z,38.40
2022-12-14T17:51:52.604Z,29.20
2022-12-14T17:54:38.577Z,32.25
2022-12-14T17:57:26.373Z,31.10
2022-12-14T18:00:52.689Z,28.15
2022-12-14T18:03:39.452Z,28.92
2022-12-14T18:06:25.982Z,25.88
2022-12-14T18:09:12.421Z,25.60
2022-12-14T18:12:22.099Z,24.58
2022-12-14T18:15:22.246Z,26.30
2022-12-14T18:18:09.122Z,28.45
2022-12-14T18:21:02.798Z,24.42
2022-12-14T18:23:50.419Z,28.08
2022-12-14T18:26:36.257Z,35.47
2022-12-14T18:29:22.232Z,28.95
2022-12-14T18:32:13.816Z,32.85
2022-12-14T18:34:59.760Z,25.55
2022-12-14T18:37:49.477Z,29.60
2022-12-14T18:40:36.783Z,27.60
2022-12-14T18:43:25.405Z,23.80
2022-12-14T18:46:11.793Z,28.30
2022-12-14T18:48:59.115Z,30.80
2022-12-14T18:51:45.292Z,29.23
2022-12-14T18:54:31.701Z,26.98
2022-12-14T18:57:17.958Z,30.23
2022-12-14T19:00:04.559Z,27.90
2022-12-14T19:02:51.835Z,31.45
2022-12-14T19:05:37.959Z,25.70
2022-12-14T19:08:23.992Z,31.55
2022-12-14T19:11:17.494Z,24.38
2022-12-14T19:14:03.645Z,35.00
2022-12-14T19:16:49.414Z,29.02
2022-12-14T19:19:42.541Z,24.77
2022-12-14T19:22:30.244Z,23.55
2022-12-14T19:25:16.908Z,26.13
2022-12-14T19:31:11.205Z,25.55
2022-12-14T19:33:57.279Z,24.50
2022-12-14T19:36:43.072Z,23.92
2022-12-14T19:39:28.999Z,27.60
2022-12-14T19:42:15.110Z,33.38
2022-12-14T19:45:01.009Z,18.42
2022-12-14T19:47:51.217Z,18.55
2022-12-14T19:50:37.228Z,19.23
2022-12-14T19:53:24.226Z,23.42
2022-12-14T19:56:15.947Z,19.83
2022-12-14T19:59:03.641Z,19.08
2022-12-14T20:01:49.601Z,19.90
2022-12-14T20:04:36.227Z,22.00
2022-12-14T20:07:22.441Z,22.65
2022-12-14T20:10:08.834Z,17.80
2022-12-14T20:12:55.056Z,19.30
2022-12-14T20:15:47.331Z,16.02
2022-12-14T20:18:33.879Z,25.35
2022-12-14T20:21:22.524Z,19.98
2022-12-14T20:24:10.366Z,19.60
2022-12-14T20:26:56.534Z,26.42
2022-12-14T20:29:43.092Z,19.83
2022-12-14T20:32:29.818Z,26.35
2022-12-14T20:35:18.611Z,22.80
2022-12-14T20:38:04.733Z,23.00
2022-12-14T20:40:50.574Z,18.98
2022-12-14T20:43:37.967Z,22.92
2022-12-14T20:46:36.239Z,24.30
2022-12-14T20:49:29.361Z,20.63
2022-12-14T20:52:15.621Z,22.08
2022-12-14T20:55:01.593Z,24.52
2022-12-14T20:57:47.630Z,22.08
2022-12-14T21:00:34.418Z,20.90
2022-12-14T21:03:20.417Z,20.27
2022-12-14T21:06:07.387Z,18.92
2022-12-14T21:09:04.811Z,18.00
2022-12-14T21:12:10.006Z,17.55
2022-12-14T21:14:59.495Z,18.30
2022-12-14T21:17:45.717Z,21.23
2022-12-14T21:20:31.592Z,22.75
2022-12-14T21:23:20.312Z,15.55
2022-12-14T21:26:06.412Z,19.77
2022-12-14T21:28:53.510Z,18.83
2022-12-14T21:31:42.578Z,14.55
2022-12-14T21:34:28.850Z,14.43
2022-12-14T21:37:15.649Z,16.50
2022-12-14T21:40:03.716Z,17.23
2022-12-14T21:42:56.360Z,15.07
2022-12-14T21:45:42.582Z,19.63
2022-12-14T21:48:29.112Z,15.98
2022-12-14T21:51:17.439Z,15.02
2022-12-14T21:54:04.130Z,20.42
2022-12-14T21:57:09.137Z,22.60
2022-12-14T21:59:55.849Z,18.63
2022-12-14T22:02:44.168Z,21.48
2022-12-14T22:05:30.017Z,16.02
2022-12-14T22:08:16.068Z,17.92
2022-12-14T22:11:05.656Z,15.32
2022-12-14T22:13:51.609Z,17.05
2022-12-14T22:16:37.822Z,18.05
2022-12-14T22:19:25.180Z,18.88
2022-12-14T22:22:15.334Z,17.80
2022-12-14T22:25:01.700Z,18.25
2022-12-14T22:27:50.107Z,15.18
2022-12-14T22:30:36.589Z,14.02
2022-12-14T22:33:22.813Z,17.52
2022-12-14T22:36:09.034Z,17.25
2022-12-14T22:38:59.063Z,15.30
2022-12-14T22:41:45.737Z,17.48
2022-12-14T22:44:31.991Z,13.82
2022-12-14T22:47:18.574Z,21.23
2022-12-14T22:50:04.825Z,13.63
2022-12-14T22:52:50.742Z,15.35
2022-12-14T22:55:38.442Z,25.10
2022-12-14T22:58:26.508Z,17.58
2022-12-14T23:01:13.943Z,24.55
2022-12-14T23:04:00.888Z,13.50
2022-12-14T23:06:47.341Z,17.17
2022-12-14T23:09:51.836Z,15.85
2022-12-14T23:12:56.229Z,14.52
2022-12-14T23:16:00.687Z,12.43
2022-12-14T23:19:04.915Z,13.68
2022-12-14T23:22:10.177Z,15.75
2022-12-14T23:25:14.732Z,14.25
2022-12-14T23:28:20.041Z,14.05
2022-12-14T23:31:24.969Z,16.60
2022-12-14T23:34:29.914Z,14.88
2022-12-14T23:37:34.432Z,14.30
2022-12-14T23:40:45.581Z,24.27
2022-12-14T23:44:28.202Z,16.05
2022-12-14T23:47:34.202Z,20.02
2022-12-14T23:51:14.224Z,14.40
2022-12-14T23:54:21.237Z,15.15
